sensor_id;sensor_type;location;lat;lon;timestamp;pressure;altitude;pressure_sealevel;temperature;humidity
20624;BME280;10471;42.736;23.346;2022-08-19T00:01:19;95280.53;;;20.07;89.95
20624;BME280;10471;42.736;23.346;2022-08-19T00:03:45;95296.38;;;20.00;89.00
20624;BME280;10471;42.736;23.346;2022-08-19T00:06:10;95293.69;;;20.00;89.08
20624;BME280;10471;42.736;23.346;2022-08-19T00:08:36;95294.03;;;19.99;92.39
20624;BME280;10471;42.736;23.346;2022-08-19T00:11:02;95291.00;;;20.00;92.24
20624;BME280;10471;42.736;23.346;2022-08-19T00:13:27;95291.69;;;19.97;94.01
20624;BME280;10471;42.736;23.346;2022-08-19T00:15:54;95291.59;;;19.94;93.58
20624;BME280;10471;42.736;23.346;2022-08-19T00:18:20;95301.38;;;19.90;93.41
20624;BME280;10471;42.736;23.346;2022-08-19T00:20:45;95299.22;;;19.83;92.95
20624;BME280;10471;42.736;23.346;2022-08-19T00:23:11;95301.13;;;19.83;93.63
20624;BME280;10471;42.736;23.346;2022-08-19T00:25:36;95309.16;;;19.71;95.22
20624;BME280;10471;42.736;23.346;2022-08-19T00:28:02;95299.66;;;19.73;96.40
20624;BME280;10471;42.736;23.346;2022-08-19T00:30:28;95300.81;;;19.73;95.12
20624;BME280;10471;42.736;23.346;2022-08-19T00:32:54;95308.84;;;19.73;97.36
20624;BME280;10471;42.736;23.346;2022-08-19T00:35:20;95296.91;;;19.70;96.82
20624;BME280;10471;42.736;23.346;2022-08-19T00:37:47;95298.25;;;19.64;96.61
20624;BME280;10471;42.736;23.346;2022-08-19T00:40:14;95294.56;;;19.57;96.18
20624;BME280;10471;42.736;23.346;2022-08-19T00:42:40;95284.97;;;19.56;95.66
20624;BME280;10471;42.736;23.346;2022-08-19T00:45:11;95291.88;;;19.57;96.74
20624;BME280;10471;42.736;23.346;2022-08-19T00:47:37;95294.78;;;19.52;97.40
20624;BME280;10471;42.736;23.346;2022-08-19T00:50:03;95286.75;;;19.52;98.14
20624;BME280;10471;42.736;23.346;2022-08-19T00:52:33;95287.41;;;19.49;99.34
20624;BME280;10471;42.736;23.346;2022-08-19T00:55:00;95283.16;;;19.48;98.76
20624;BME280;10471;42.736;23.346;2022-08-19T00:57:38;95285.41;;;19.46;99.68
20624;BME280;10471;42.736;23.346;2022-08-19T01:00:09;95286.03;;;19.43;100.00
20624;BME280;10471;42.736;23.346;2022-08-19T01:02:37;95285.16;;;19.39;100.00
20624;BME280;10471;42.736;23.346;2022-08-19T01:05:06;95289.16;;;19.33;100.00
20624;BME280;10471;42.736;23.346;2022-08-19T01:07:34;95290.25;;;19.32;100.00
20624;BME280;10471;42.736;23.346;2022-08-19T01:10:00;95286.81;;;19.31;100.00
20624;BME280;10471;42.736;23.346;2022-08-19T01:12:26;95289.03;;;19.29;100.00
20624;BME280;10471;42.736;23.346;2022-08-19T01:14:52;95287.78;;;19.27;100.00
20624;BME280;10471;42.736;23.346;2022-08-19T01:17:19;95283.22;;;19.15;100.00
20624;BME280;10471;42.736;23.346;2022-08-19T01:19:45;95294.88;;;19.11;100.00
20624;BME280;10471;42.736;23.346;2022-08-19T01:22:36;95281.59;;;19.03;100.00
20624;BME280;10471;42.736;23.346;2022-08-19T01:25:04;95289.69;;;18.94;100.00
20624;BME280;10471;42.736;23.346;2022-08-19T01:27:38;95283.19;;;18.83;100.00
20624;BME280;10471;42.736;23.346;2022-08-19T01:30:05;95282.56;;;18.66;100.00
20624;BME280;10471;42.736;23.346;2022-08-19T01:32:31;95284.00;;;18.63;100.00
20624;BME280;10471;42.736;23.346;2022-08-19T01:34:56;95285.31;;;18.57;100.00
20624;BME280;10471;42.736;23.346;2022-08-19T01:37:22;95271.06;;;18.53;100.00
20624;BME280;10471;42.736;23.346;2022-08-19T01:39:47;95272.91;;;18.53;100.00
20624;BME280;10471;42.736;23.346;2022-08-19T01:42:13;95277.50;;;18.52;100.00
20624;BME280;10471;42.736;23.346;2022-08-19T01:44:39;95274.50;;;18.54;100.00
20624;BME280;10471;42.736;23.346;2022-08-19T01:47:06;95289.75;;;18.53;100.00
20624;BME280;10471;42.736;23.346;2022-08-19T01:49:32;95286.59;;;18.51;100.00
20624;BME280;10471;42.736;23.346;2022-08-19T01:51:59;95284.50;;;18.57;100.00
20624;BME280;10471;42.736;23.346;2022-08-19T01:54:25;95292.72;;;18.52;100.00
20624;BME280;10471;42.736;23.346;2022-08-19T01:56:51;95299.47;;;18.49;100.00
20624;BME280;10471;42.736;23.346;2022-08-19T01:59:20;95291.94;;;18.51;100.00
20624;BME280;10471;42.736;23.346;2022-08-19T02:01:48;95290.19;;;18.55;100.00
20624;BME280;10471;42.736;23.346;2022-08-19T02:04:13;95300.53;;;18.57;100.00
20624;BME280;10471;42.736;23.346;2022-08-19T02:06:39;95300.84;;;18.55;100.00
20624;BME280;10471;42.736;23.346;2022-08-19T02:09:06;95302.28;;;18.53;100.00
20624;BME280;10471;42.736;23.346;2022-08-19T02:11:34;95298.72;;;18.49;100.00
20624;BME280;10471;42.736;23.346;2022-08-19T02:14:03;95299.19;;;18.51;100.00
20624;BME280;10471;42.736;23.346;2022-08-19T02:16:29;95300.16;;;18.46;100.00
20624;BME280;10471;42.736;23.346;2022-08-19T02:18:55;95298.59;;;18.45;100.00
20624;BME280;10471;42.736;23.346;2022-08-19T02:21:22;95295.44;;;18.43;100.00
20624;BME280;10471;42.736;23.346;2022-08-19T02:23:49;95295.44;;;18.43;100.00
20624;BME280;10471;42.736;23.346;2022-08-19T02:26:15;95292.78;;;18.43;100.00
20624;BME280;10471;42.736;23.346;2022-08-19T02:28:41;95290.91;;;18.44;100.00
20624;BME280;10471;42.736;23.346;2022-08-19T02:31:13;95298.31;;;18.39;100.00
20624;BME280;10471;42.736;23.346;2022-08-19T02:33:40;95297.88;;;18.37;100.00
20624;BME280;10471;42.736;23.346;2022-08-19T02:36:07;95298.50;;;18.34;100.00
20624;BME280;10471;42.736;23.346;2022-08-19T02:38:33;95298.06;;;18.32;100.00
20624;BME280;10471;42.736;23.346;2022-08-19T02:41:03;95302.94;;;18.30;100.00
20624;BME280;10471;42.736;23.346;2022-08-19T02:43:33;95303.59;;;18.27;100.00
20624;BME280;10471;42.736;23.346;2022-08-19T02:46:14;95299.53;;;18.21;100.00
20624;BME280;10471;42.736;23.346;2022-08-19T02:48:40;95298.91;;;18.15;100.00
20624;BME280;10471;42.736;23.346;2022-08-19T02:51:05;95302.56;;;18.11;100.00
20624;BME280;10471;42.736;23.346;2022-08-19T02:53:31;95309.94;;;18.05;100.00
20624;BME280;10471;42.736;23.346;2022-08-19T02:55:56;95309.38;;;18.00;100.00
20624;BME280;10471;42.736;23.346;2022-08-19T02:58:22;95312.56;;;17.93;100.00
20624;BME280;10471;42.736;23.346;2022-08-19T03:00:51;95300.16;;;17.89;100.00
20624;BME280;10471;42.736;23.346;2022-08-19T03:03:17;95310.38;;;17.87;100.00
20624;BME280;10471;42.736;23.346;2022-08-19T03:05:43;95304.13;;;17.83;100.00
20624;BME280;10471;42.736;23.346;2022-08-19T03:08:10;95299.88;;;17.82;100.00
20624;BME280;10471;42.736;23.346;2022-08-19T03:10:47;95308.53;;;17.79;100.00
20624;BME280;10471;42.736;23.346;2022-08-19T03:13:14;95309.03;;;17.73;100.00
20624;BME280;10471;42.736;23.346;2022-08-19T03:15:46;95303.25;;;17.71;100.00
20624;BME280;10471;42.736;23.346;2022-08-19T03:18:13;95298.75;;;17.63;100.00
20624;BME280;10471;42.736;23.346;2022-08-19T03:20:47;95301.72;;;17.53;100.00
20624;BME280;10471;42.736;23.346;2022-08-19T03:23:13;95300.53;;;17.42;100.00
20624;BME280;10471;42.736;23.346;2022-08-19T03:25:40;95297.91;;;17.33;100.00
20624;BME280;10471;42.736;23.346;2022-08-19T03:28:09;95299.63;;;17.29;100.00
20624;BME280;10471;42.736;23.346;2022-08-19T03:30:34;95310.59;;;17.19;100.00
20624;BME280;10471;42.736;23.346;2022-08-19T03:32:59;95307.00;;;17.15;100.00
20624;BME280;10471;42.736;23.346;2022-08-19T03:35:25;95309.03;;;17.18;100.00
20624;BME280;10471;42.736;23.346;2022-08-19T03:37:51;95313.09;;;17.24;100.00
20624;BME280;10471;42.736;23.346;2022-08-19T03:40:18;95315.94;;;17.28;100.00
20624;BME280;10471;42.736;23.346;2022-08-19T03:42:44;95311.41;;;17.28;100.00
20624;BME280;10471;42.736;23.346;2022-08-19T03:45:11;95310.75;;;17.31;100.00
20624;BME280;10471;42.736;23.346;2022-08-19T03:47:37;95313.09;;;17.33;100.00
20624;BME280;10471;42.736;23.346;2022-08-19T03:50:03;95328.13;;;17.37;100.00
20624;BME280;10471;42.736;23.346;2022-08-19T03:52:29;95327.97;;;17.42;100.00
20624;BME280;10471;42.736;23.346;2022-08-19T03:54:55;95333.44;;;17.46;100.00
20624;BME280;10471;42.736;23.346;2022-08-19T03:57:20;95332.78;;;17.49;100.00
20624;BME280;10471;42.736;23.346;2022-08-19T03:59:46;95339.84;;;17.53;100.00
20624;BME280;10471;42.736;23.346;2022-08-19T04:02:12;95338.75;;;17.54;100.00
20624;BME280;10471;42.736;23.346;2022-08-19T04:04:38;95341.06;;;17.64;100.00
20624;BME280;10471;42.736;23.346;2022-08-19T04:07:05;95344.00;;;17.71;100.00
20624;BME280;10471;42.736;23.346;2022-08-19T04:09:30;95347.63;;;17.75;100.00
20624;BME280;10471;42.736;23.346;2022-08-19T04:11:57;95342.53;;;17.82;100.00
20624;BME280;10471;42.736;23.346;2022-08-19T04:14:25;95348.34;;;17.84;100.00
20624;BME280;10471;42.736;23.346;2022-08-19T04:16:52;95345.97;;;17.91;100.00
20624;BME280;10471;42.736;23.346;2022-08-19T04:19:18;95348.47;;;17.96;100.00
20624;BME280;10471;42.736;23.346;2022-08-19T04:21:46;95345.63;;;18.01;100.00
20624;BME280;10471;42.736;23.346;2022-08-19T04:24:13;95350.94;;;18.01;100.00
20624;BME280;10471;42.736;23.346;2022-08-19T04:26:39;95351.09;;;18.04;100.00
20624;BME280;10471;42.736;23.346;2022-08-19T04:29:11;95354.19;;;18.06;100.00
20624;BME280;10471;42.736;23.346;2022-08-19T04:31:36;95355.91;;;18.11;100.00
20624;BME280;10471;42.736;23.346;2022-08-19T04:34:07;95358.41;;;18.16;100.00
20624;BME280;10471;42.736;23.346;2022-08-19T04:36:36;95368.59;;;18.22;100.00
20624;BME280;10471;42.736;23.346;2022-08-19T04:39:05;95364.16;;;18.26;100.00
20624;BME280;10471;42.736;23.346;2022-08-19T04:41:33;95349.88;;;18.31;100.00
20624;BME280;10471;42.736;23.346;2022-08-19T04:44:17;95351.56;;;18.35;100.00
20624;BME280;10471;42.736;23.346;2022-08-19T04:46:44;95357.03;;;18.39;100.00
20624;BME280;10471;42.736;23.346;2022-08-19T04:49:09;95350.25;;;18.41;100.00
20624;BME280;10471;42.736;23.346;2022-08-19T04:51:36;95360.75;;;18.46;100.00
20624;BME280;10471;42.736;23.346;2022-08-19T04:54:03;95359.16;;;18.53;100.00
20624;BME280;10471;42.736;23.346;2022-08-19T04:56:28;95360.06;;;18.57;100.00
20624;BME280;10471;42.736;23.346;2022-08-19T04:58:55;95354.97;;;18.64;100.00
20624;BME280;10471;42.736;23.346;2022-08-19T05:01:27;95358.38;;;18.73;100.00
20624;BME280;10471;42.736;23.346;2022-08-19T05:03:54;95356.41;;;18.82;100.00
20624;BME280;10471;42.736;23.346;2022-08-19T05:06:21;95364.34;;;18.91;100.00
20624;BME280;10471;42.736;23.346;2022-08-19T05:08:48;95362.53;;;19.03;100.00
20624;BME280;10471;42.736;23.346;2022-08-19T05:11:17;95367.03;;;19.11;100.00
20624;BME280;10471;42.736;23.346;2022-08-19T05:13:45;95365.50;;;19.22;100.00
20624;BME280;10471;42.736;23.346;2022-08-19T05:16:12;95360.88;;;19.31;100.00
20624;BME280;10471;42.736;23.346;2022-08-19T05:18:39;95369.59;;;19.40;100.00
20624;BME280;10471;42.736;23.346;2022-08-19T05:21:23;95370.28;;;19.49;100.00
20624;BME280;10471;42.736;23.346;2022-08-19T05:24:08;95365.94;;;19.56;100.00
20624;BME280;10471;42.736;23.346;2022-08-19T05:26:42;95369.88;;;19.59;100.00
20624;BME280;10471;42.736;23.346;2022-08-19T05:29:08;95370.09;;;19.66;100.00
20624;BME280;10471;42.736;23.346;2022-08-19T05:31:36;95368.91;;;19.75;100.00
20624;BME280;10471;42.736;23.346;2022-08-19T05:34:02;95366.91;;;19.84;100.00
20624;BME280;10471;42.736;23.346;2022-08-19T05:36:34;95367.28;;;19.94;100.00
20624;BME280;10471;42.736;23.346;2022-08-19T05:38:59;95359.72;;;20.08;100.00
20624;BME280;10471;42.736;23.346;2022-08-19T05:41:25;95365.97;;;20.24;100.00
20624;BME280;10471;42.736;23.346;2022-08-19T05:43:55;95371.06;;;20.41;100.00
20624;BME280;10471;42.736;23.346;2022-08-19T05:46:21;95367.03;;;20.59;100.00
20624;BME280;10471;42.736;23.346;2022-08-19T05:48:47;95364.34;;;20.71;100.00
20624;BME280;10471;42.736;23.346;2022-08-19T05:51:13;95369.28;;;20.81;100.00
20624;BME280;10471;42.736;23.346;2022-08-19T05:53:39;95367.00;;;20.95;100.00
20624;BME280;10471;42.736;23.346;2022-08-19T05:56:10;95370.06;;;21.08;100.00
20624;BME280;10471;42.736;23.346;2022-08-19T05:58:36;95365.88;;;21.23;100.00
20624;BME280;10471;42.736;23.346;2022-08-19T06:01:04;95361.00;;;21.40;100.00
20624;BME280;10471;42.736;23.346;2022-08-19T06:03:34;95361.09;;;21.44;100.00
20624;BME280;10471;42.736;23.346;2022-08-19T06:06:00;95367.91;;;21.53;100.00
20624;BME280;10471;42.736;23.346;2022-08-19T06:08:28;95365.50;;;21.64;100.00
20624;BME280;10471;42.736;23.346;2022-08-19T06:10:54;95375.81;;;21.77;100.00
20624;BME280;10471;42.736;23.346;2022-08-19T06:13:19;95369.78;;;21.95;100.00
20624;BME280;10471;42.736;23.346;2022-08-19T06:15:46;95364.81;;;22.13;96.03
20624;BME280;10471;42.736;23.346;2022-08-19T06:18:12;95363.88;;;22.21;95.59
20624;BME280;10471;42.736;23.346;2022-08-19T06:20:38;95374.13;;;22.31;92.74
20624;BME280;10471;42.736;23.346;2022-08-19T06:23:03;95374.44;;;22.44;91.10
20624;BME280;10471;42.736;23.346;2022-08-19T06:25:29;95374.09;;;22.61;89.08
20624;BME280;10471;42.736;23.346;2022-08-19T06:27:55;95374.31;;;22.72;82.59
20624;BME280;10471;42.736;23.346;2022-08-19T06:30:20;95370.03;;;22.86;83.13
20624;BME280;10471;42.736;23.346;2022-08-19T06:32:45;95368.78;;;22.99;82.60
20624;BME280;10471;42.736;23.346;2022-08-19T06:35:11;95374.13;;;23.14;77.97
20624;BME280;10471;42.736;23.346;2022-08-19T06:37:38;95373.06;;;23.19;77.85
20624;BME280;10471;42.736;23.346;2022-08-19T06:40:04;95368.25;;;23.28;76.64
20624;BME280;10471;42.736;23.346;2022-08-19T06:42:29;95372.34;;;23.41;74.42
20624;BME280;10471;42.736;23.346;2022-08-19T06:44:56;95362.00;;;23.43;75.36
20624;BME280;10471;42.736;23.346;2022-08-19T06:47:23;95369.78;;;23.48;74.41
20624;BME280;10471;42.736;23.346;2022-08-19T06:49:48;95364.63;;;23.58;77.76
20624;BME280;10471;42.736;23.346;2022-08-19T06:52:13;95365.66;;;23.73;75.04
20624;BME280;10471;42.736;23.346;2022-08-19T06:54:40;95371.72;;;23.88;73.35
20624;BME280;10471;42.736;23.346;2022-08-19T06:57:07;95374.69;;;24.02;70.29
20624;BME280;10471;42.736;23.346;2022-08-19T06:59:34;95367.25;;;24.18;69.27
20624;BME280;10471;42.736;23.346;2022-08-19T07:02:03;95368.22;;;24.29;69.96
20624;BME280;10471;42.736;23.346;2022-08-19T07:04:31;95369.03;;;24.33;69.34
20624;BME280;10471;42.736;23.346;2022-08-19T07:07:06;95376.94;;;24.45;67.49
20624;BME280;10471;42.736;23.346;2022-08-19T07:09:34;95379.13;;;24.62;68.00
20624;BME280;10471;42.736;23.346;2022-08-19T07:12:03;95375.34;;;24.66;64.74
20624;BME280;10471;42.736;23.346;2022-08-19T07:14:29;95374.34;;;24.78;65.96
20624;BME280;10471;42.736;23.346;2022-08-19T07:16:55;95370.66;;;24.89;69.54
20624;BME280;10471;42.736;23.346;2022-08-19T07:19:24;95371.63;;;25.04;68.81
20624;BME280;10471;42.736;23.346;2022-08-19T07:21:52;95369.78;;;25.08;65.46
20624;BME280;10471;42.736;23.346;2022-08-19T07:24:20;95371.22;;;25.27;66.58
20624;BME280;10471;42.736;23.346;2022-08-19T07:26:46;95369.91;;;25.47;72.73
20624;BME280;10471;42.736;23.346;2022-08-19T07:29:11;95359.25;;;25.61;67.17
20624;BME280;10471;42.736;23.346;2022-08-19T07:31:38;95361.03;;;25.80;62.31
20624;BME280;10471;42.736;23.346;2022-08-19T07:34:06;95361.47;;;25.85;63.24
20624;BME280;10471;42.736;23.346;2022-08-19T07:36:34;95363.94;;;26.00;63.87
20624;BME280;10471;42.736;23.346;2022-08-19T07:39:03;95365.66;;;26.19;63.37
20624;BME280;10471;42.736;23.346;2022-08-19T07:41:30;95360.75;;;26.35;61.82
20624;BME280;10471;42.736;23.346;2022-08-19T07:43:58;95355.47;;;26.48;58.97
20624;BME280;10471;42.736;23.346;2022-08-19T07:46:27;95358.66;;;26.61;57.71
20624;BME280;10471;42.736;23.346;2022-08-19T07:48:53;95364.16;;;26.71;56.62
20624;BME280;10471;42.736;23.346;2022-08-19T07:51:20;95360.31;;;26.72;58.76
20624;BME280;10471;42.736;23.346;2022-08-19T07:53:47;95359.94;;;26.77;58.18
20624;BME280;10471;42.736;23.346;2022-08-19T07:56:14;95359.63;;;26.89;57.32
20624;BME280;10471;42.736;23.346;2022-08-19T07:58:44;95357.41;;;26.98;55.39
20624;BME280;10471;42.736;23.346;2022-08-19T08:01:23;95353.84;;;26.94;55.22
20624;BME280;10471;42.736;23.346;2022-08-19T08:03:50;95367.50;;;27.08;56.51
20624;BME280;10471;42.736;23.346;2022-08-19T08:06:34;95355.19;;;27.21;56.31
20624;BME280;10471;42.736;23.346;2022-08-19T08:09:26;95356.69;;;27.12;53.51
20624;BME280;10471;42.736;23.346;2022-08-19T08:11:54;95358.22;;;27.13;52.96
20624;BME280;10471;42.736;23.346;2022-08-19T08:14:29;95356.72;;;27.18;52.54
20624;BME280;10471;42.736;23.346;2022-08-19T08:16:55;95348.25;;;27.27;53.18
20624;BME280;10471;42.736;23.346;2022-08-19T08:19:23;95348.28;;;27.34;52.10
20624;BME280;10471;42.736;23.346;2022-08-19T08:21:50;95347.13;;;27.35;52.16
20624;BME280;10471;42.736;23.346;2022-08-19T08:24:16;95343.69;;;27.52;53.22
20624;BME280;10471;42.736;23.346;2022-08-19T08:26:42;95336.81;;;27.72;53.30
20624;BME280;10471;42.736;23.346;2022-08-19T08:29:10;95336.84;;;27.92;54.18
20624;BME280;10471;42.736;23.346;2022-08-19T08:31:42;95340.75;;;28.12;52.57
20624;BME280;10471;42.736;23.346;2022-08-19T08:34:09;95330.34;;;28.28;52.38
20624;BME280;10471;42.736;23.346;2022-08-19T08:36:42;95329.53;;;28.45;51.83
20624;BME280;10471;42.736;23.346;2022-08-19T08:39:11;95335.34;;;28.57;51.62
20624;BME280;10471;42.736;23.346;2022-08-19T08:41:49;95331.88;;;28.64;48.79
20624;BME280;10471;42.736;23.346;2022-08-19T08:44:22;95335.38;;;28.75;47.54
20624;BME280;10471;42.736;23.346;2022-08-19T08:46:52;95330.69;;;28.79;48.05
20624;BME280;10471;42.736;23.346;2022-08-19T08:52:23;95330.66;;;29.00;47.34
20624;BME280;10471;42.736;23.346;2022-08-19T08:54:53;95315.09;;;29.11;46.75
20624;BME280;10471;42.736;23.346;2022-08-19T08:57:35;95324.75;;;29.18;46.04
20624;BME280;10471;42.736;23.346;2022-08-19T09:00:05;95317.38;;;29.22;45.53
20624;BME280;10471;42.736;23.346;2022-08-19T09:02:31;95309.22;;;29.22;43.63
20624;BME280;10471;42.736;23.346;2022-08-19T09:04:57;95305.31;;;29.30;44.05
20624;BME280;10471;42.736;23.346;2022-08-19T09:09:57;95296.22;;;29.68;45.24
20624;BME280;10471;42.736;23.346;2022-08-19T09:12:53;95305.84;;;29.80;42.97
20624;BME280;10471;42.736;23.346;2022-08-19T09:15:30;95297.59;;;29.97;42.55
20624;BME280;10471;42.736;23.346;2022-08-19T09:18:00;95293.69;;;30.05;42.44
20624;BME280;10471;42.736;23.346;2022-08-19T09:20:27;95295.09;;;30.20;40.66
20624;BME280;10471;42.736;23.346;2022-08-19T09:22:52;95291.88;;;30.32;41.13
20624;BME280;10471;42.736;23.346;2022-08-19T09:25:20;95284.81;;;30.45;40.18
20624;BME280;10471;42.736;23.346;2022-08-19T09:27:48;95287.09;;;30.50;39.77
20624;BME280;10471;42.736;23.346;2022-08-19T09:30:19;95279.59;;;30.60;40.60
20624;BME280;10471;42.736;23.346;2022-08-19T09:32:47;95284.53;;;30.72;39.58
20624;BME280;10471;42.736;23.346;2022-08-19T09:35:14;95275.03;;;30.87;40.27
20624;BME280;10471;42.736;23.346;2022-08-19T09:37:40;95275.75;;;30.91;39.22
20624;BME280;10471;42.736;23.346;2022-08-19T09:40:06;95276.03;;;31.04;40.00
20624;BME280;10471;42.736;23.346;2022-08-19T09:42:32;95273.47;;;31.23;38.02
20624;BME280;10471;42.736;23.346;2022-08-19T09:44:59;95279.66;;;31.27;36.30
20624;BME280;10471;42.736;23.346;2022-08-19T09:47:24;95272.09;;;31.38;36.48
20624;BME280;10471;42.736;23.346;2022-08-19T09:49:50;95263.09;;;31.41;35.96
20624;BME280;10471;42.736;23.346;2022-08-19T09:52:16;95271.03;;;31.62;38.45
20624;BME280;10471;42.736;23.346;2022-08-19T09:54:42;95272.22;;;31.87;36.56
20624;BME280;10471;42.736;23.346;2022-08-19T09:57:08;95268.97;;;31.95;37.03
20624;BME280;10471;42.736;23.346;2022-08-19T09:59:34;95261.00;;;32.08;36.38
20624;BME280;10471;42.736;23.346;2022-08-19T10:01:59;95268.66;;;32.16;34.91
20624;BME280;10471;42.736;23.346;2022-08-19T10:04:25;95257.34;;;32.18;35.04
20624;BME280;10471;42.736;23.346;2022-08-19T10:07:10;95246.22;;;32.28;36.97
20624;BME280;10471;42.736;23.346;2022-08-19T10:09:36;95246.13;;;32.35;35.68
20624;BME280;10471;42.736;23.346;2022-08-19T10:12:04;95238.72;;;32.36;34.49
20624;BME280;10471;42.736;23.346;2022-08-19T10:14:30;95244.34;;;32.48;36.54
20624;BME280;10471;42.736;23.346;2022-08-19T10:16:56;95241.06;;;32.57;36.30
20624;BME280;10471;42.736;23.346;2022-08-19T10:19:21;95234.72;;;32.63;34.61
20624;BME280;10471;42.736;23.346;2022-08-19T10:21:47;95244.03;;;32.65;35.57
20624;BME280;10471;42.736;23.346;2022-08-19T10:24:12;95234.91;;;32.53;34.99
20624;BME280;10471;42.736;23.346;2022-08-19T10:26:39;95230.81;;;32.64;35.84
20624;BME280;10471;42.736;23.346;2022-08-19T10:29:07;95237.19;;;32.77;37.05
20624;BME280;10471;42.736;23.346;2022-08-19T10:31:33;95234.03;;;32.98;34.83
20624;BME280;10471;42.736;23.346;2022-08-19T10:34:00;95226.97;;;33.20;34.55
20624;BME280;10471;42.736;23.346;2022-08-19T10:36:32;95222.06;;;33.30;34.73
20624;BME280;10471;42.736;23.346;2022-08-19T10:39:00;95227.22;;;33.44;34.26
20624;BME280;10471;42.736;23.346;2022-08-19T10:41:32;95225.22;;;33.64;33.95
20624;BME280;10471;42.736;23.346;2022-08-19T10:44:00;95226.22;;;33.54;32.78
20624;BME280;10471;42.736;23.346;2022-08-19T10:46:27;95219.06;;;33.60;34.53
20624;BME280;10471;42.736;23.346;2022-08-19T10:48:54;95219.78;;;33.80;34.14
20624;BME280;10471;42.736;23.346;2022-08-19T10:51:21;95220.09;;;34.01;35.02
20624;BME280;10471;42.736;23.346;2022-08-19T10:54:05;95204.34;;;34.05;32.61
20624;BME280;10471;42.736;23.346;2022-08-19T10:56:32;95210.72;;;33.99;31.85
20624;BME280;10471;42.736;23.346;2022-08-19T10:59:17;95207.16;;;34.18;32.32
20624;BME280;10471;42.736;23.346;2022-08-19T11:01:45;95208.88;;;34.12;32.50
20624;BME280;10471;42.736;23.346;2022-08-19T11:04:12;95205.25;;;34.15;33.91
20624;BME280;10471;42.736;23.346;2022-08-19T11:06:39;95208.00;;;33.99;32.54
20624;BME280;10471;42.736;23.346;2022-08-19T11:09:07;95207.56;;;34.32;34.97
20624;BME280;10471;42.736;23.346;2022-08-19T11:11:33;95203.88;;;34.55;33.42
20624;BME280;10471;42.736;23.346;2022-08-19T11:14:04;95207.28;;;34.87;32.23
20624;BME280;10471;42.736;23.346;2022-08-19T11:16:30;95202.19;;;35.01;33.43
20624;BME280;10471;42.736;23.346;2022-08-19T11:18:58;95200.50;;;35.32;32.13
20624;BME280;10471;42.736;23.346;2022-08-19T11:21:29;95191.88;;;35.58;34.08
20624;BME280;10471;42.736;23.346;2022-08-19T11:24:00;95191.22;;;35.79;30.37
20624;BME280;10471;42.736;23.346;2022-08-19T11:26:27;95189.34;;;35.89;29.03
20624;BME280;10471;42.736;23.346;2022-08-19T11:28:53;95186.06;;;35.94;31.23
20624;BME280;10471;42.736;23.346;2022-08-19T11:31:22;95192.22;;;35.73;30.74
20624;BME280;10471;42.736;23.346;2022-08-19T11:33:47;95183.06;;;35.38;30.19
20624;BME280;10471;42.736;23.346;2022-08-19T11:36:17;95183.22;;;35.85;29.90
20624;BME280;10471;42.736;23.346;2022-08-19T11:38:43;95175.03;;;36.18;30.75
20624;BME280;10471;42.736;23.346;2022-08-19T11:41:09;95168.91;;;36.48;31.39
20624;BME280;10471;42.736;23.346;2022-08-19T11:43:36;95167.75;;;36.71;33.19
20624;BME280;10471;42.736;23.346;2022-08-19T11:46:12;95165.94;;;36.55;31.63
20624;BME280;10471;42.736;23.346;2022-08-19T11:48:40;95167.09;;;36.67;30.27
20624;BME280;10471;42.736;23.346;2022-08-19T11:51:18;95163.91;;;36.68;29.77
20624;BME280;10471;42.736;23.346;2022-08-19T11:53:44;95163.81;;;36.93;32.09
20624;BME280;10471;42.736;23.346;2022-08-19T11:56:11;95164.22;;;37.13;30.24
20624;BME280;10471;42.736;23.346;2022-08-19T11:58:38;95165.00;;;37.35;29.73
20624;BME280;10471;42.736;23.346;2022-08-19T12:01:08;95146.44;;;37.56;29.48
20624;BME280;10471;42.736;23.346;2022-08-19T12:03:37;95149.59;;;37.76;31.29
20624;BME280;10471;42.736;23.346;2022-08-19T12:06:05;95145.63;;;37.77;31.25
20624;BME280;10471;42.736;23.346;2022-08-19T12:08:31;95139.28;;;37.68;29.06
20624;BME280;10471;42.736;23.346;2022-08-19T12:10:56;95137.41;;;37.56;30.51
20624;BME280;10471;42.736;23.346;2022-08-19T12:13:22;95135.13;;;37.63;29.90
20624;BME280;10471;42.736;23.346;2022-08-19T12:15:47;95140.38;;;37.70;30.19
20624;BME280;10471;42.736;23.346;2022-08-19T12:18:13;95130.00;;;37.83;28.94
20624;BME280;10471;42.736;23.346;2022-08-19T12:20:42;95137.13;;;38.11;29.26
20624;BME280;10471;42.736;23.346;2022-08-19T12:23:09;95123.84;;;37.70;28.27
20624;BME280;10471;42.736;23.346;2022-08-19T12:25:36;95123.34;;;37.54;28.00
20624;BME280;10471;42.736;23.346;2022-08-19T12:28:02;95116.09;;;37.47;27.92
20624;BME280;10471;42.736;23.346;2022-08-19T12:30:28;95108.88;;;37.71;28.32
20624;BME280;10471;42.736;23.346;2022-08-19T12:32:54;95113.75;;;37.67;28.41
20624;BME280;10471;42.736;23.346;2022-08-19T12:35:20;95122.06;;;37.46;28.63
20624;BME280;10471;42.736;23.346;2022-08-19T12:37:46;95115.25;;;37.59;28.53
20624;BME280;10471;42.736;23.346;2022-08-19T12:40:16;95112.41;;;37.81;28.25
20624;BME280;10471;42.736;23.346;2022-08-19T12:42:45;95107.47;;;37.67;27.88
20624;BME280;10471;42.736;23.346;2022-08-19T12:45:12;95112.13;;;37.48;27.72
20624;BME280;10471;42.736;23.346;2022-08-19T12:47:38;95100.63;;;37.71;28.06
20624;BME280;10471;42.736;23.346;2022-08-19T12:50:05;95102.66;;;38.07;29.38
20624;BME280;10471;42.736;23.346;2022-08-19T12:52:37;95100.41;;;38.41;27.34
20624;BME280;10471;42.736;23.346;2022-08-19T12:55:03;95102.09;;;38.83;28.17